AirNav   Get $300 off a Bose A20
 
 946 users online  

1MS8 Columbus Air Force Base Auxiliary Field (Gunshy)
Shuqualak, Mississippi, USA

GOING TO SHUQUALAK?


FAA INFORMATION EFFECTIVE 23 MAY 2019

Location

FAA Identifier: 1MS8
Lat/Long: 32-56-24.4640N / 088-34-45.1550W
32-56.407733N / 088-34.752583W
32.9401289 / -88.5792097
(estimated)
Elevation: 260 ft. / 79 m (estimated)
Variation: 02E (1985)
From city: 3 miles S of SHUQUALAK, MS
Time zone: UTC -5 (UTC -6 during Standard Time)
Zip code: 39361

Airport Operations

Airport use: Private use. Permission required prior to landing
Control tower: no
ARTCC: MEMPHIS CENTER
FSS: GREENWOOD FLIGHT SERVICE STATION
Attendance: UNATNDD
Wind indicator: yes
Segmented circle: no

Airport Communications

CTAF: 122.7

Nearby radio navigation aids

VOR radial/distance  VOR name  Freq  Var
IGBr182/32.9BIGBEE VORTAC116.2004E
EWAr346/34.9KEWANEE VORTAC113.8004E
MEIr014/35.6MERIDIAN VORTAC117.0005E

Airport Services

Runway Information

Runway 13/31

Dimensions: 6300 x 150 ft. / 1920 x 46 m
Surface: asphalt/concrete
Weight bearing capacity: 
PCN 12 /R/B/W/T
Operational restrictions: 900 FT OVERRUN EACH END.
RUNWAY 13  RUNWAY 31
Latitude: 32-56.765667N32-56.057000N
Longitude: 088-35.203833W088-34.302500W
Traffic pattern: leftleft

Airport Ownership and Management from official FAA records

Ownership: U.S. Air Force
Owner: HQ 14TH FLYING TRAINING WING
COLUMBUS AFB
COLUMBUS, MS 39701-5000
Phone 601-434-7560
Manager: MAJOR LANDRY
HQ 14TH FLYING TRAINING WING
COLUMBUS AFB, MS 39701-5000
Phone 601-434-7560

Additional Remarks

RSTD: LTD EXCLUSIVELY TO COLUMBUS AFB T-6 JET TRNG ACFT.
MISC: RY SUPERVISORY STRUCTURE (RSS) CALLED GUNSHY, FREQ 363.65/140.2 CTL THE T-6 ACFT.

Instrument Procedures

There are no published instrument procedures at 1MS8.

Some nearby airports with instrument procedures:

KNJW - Joe Williams Naval Outlying Field (15 nm SW)
KAIV - George Downer Airport (22 nm NE)
KNMM - Meridian Naval Air Station (Mc Cain Field) (23 nm S)
KLMS - Louisville Winston County Airport (27 nm NW)
KMPE - Philadelphia Municipal Airport (29 nm W)
 
Loc | Ops | Rwys | IFR | FBO | Links
Com | Nav | Svcs | Stats | Notes
Area around 1MS8 (Columbus Air Force Base Auxiliary Field (Gunshy))
 
Road maps at: MapQuest Bing Google
 
Aerial photo
No photo
 
Sectional chart

 
Airport distance calculator
Flying to Columbus Air Force Base Auxiliary Field (Gunshy)? Find the distance to fly.

From to 1MS8

Sunrise and sunset
Times for 25-May-2019
 Local
(UTC-5)
 Zulu
(UTC)
Morning civil twilight05:2210:22
Sunrise05:5010:50
Sunset19:5200:52
Evening civil twilight20:2001:20

Current date and time
Zulu (UTC)  26-May-2019 00:14:51
Local (UTC-5)  25-May-2019 19:14:51
 
METAR
KNMM 
24nm S 
252356Z AUTO 18003KT 10SM CLR 31/21 A3010 RMK AO2 SLP197 T03110211 10350 20311 56007 $
KGTR 
31nm N 
260003Z 19006KT 10SM OVC001 31/20 A3009 RMK AO2
KSTF 
33nm NW 
252355Z AUTO 00000KT 10SM CLR 31/18 A3010 RMK AO2 PWINO
KMEI 
37nm S 
252358Z 24003KT 10SM 32/20 A3009 RMK AO2 SLP186 T03170200 10339 20317 56007 $
KCBM 
42nm N 
252356Z AUTO M M M M M M RMK AO2 SLPNO RVRNO PNO FZRANO VISNO RWY31C CHINO RWY31C $
KDYA 
43nm SE 
252355Z AUTO 00000KT 10SM CLR 32/21 A3009 RMK AO2 T03160213 10340 20316
TAF
KNMM 
24nm S 
2523/2623 VRB05KT 9999 SKC QNH3007INS AUTOMATED SENSOR METWATCH 2523 TIL 2620 T20/2610Z T34/2620Z FN00205
NOTAMs
Click for the latest NOTAMs
NOTAMs are issued by the DoD/FAA and will open in a separate window not controlled by AirNav.

 

 
 

Would you like to see your business listed on this page?

 If your business provides an interesting product or service to pilots, flight crews, aircraft, or users of the Columbus Air Force Base Auxiliary Field (Gunshy), you should consider listing it here.  To start the listing process, click on the button below
 
Add a business
 

Other Pages about Columbus Air Force Base Auxiliary Field (Gunshy)

Update a link
 
Copyright © AirNav, LLC. All rights reserved. Privacy Policy  Contact